sensor_id;sensor_type;location;lat;lon;timestamp;pressure;altitude;pressure_sealevel;temperature;humidity
51999;BME280;38015;50.924;11.598;2023-04-05T00:01:18;100282.58;;;22.67;22.04
51999;BME280;38015;50.924;11.598;2023-04-05T00:03:48;100281.29;;;22.60;22.11
51999;BME280;38015;50.924;11.598;2023-04-05T00:06:18;100278.03;;;22.52;22.23
51999;BME280;38015;50.924;11.598;2023-04-05T00:08:49;100273.58;;;22.50;22.25
51999;BME280;38015;50.924;11.598;2023-04-05T00:11:19;100270.46;;;22.55;22.17
51999;BME280;38015;50.924;11.598;2023-04-05T00:13:50;100269.76;;;22.55;22.19
51999;BME280;38015;50.924;11.598;2023-04-05T00:16:21;100267.68;;;22.59;22.10
51999;BME280;38015;50.924;11.598;2023-04-05T00:18:51;100265.18;;;22.60;22.10
51999;BME280;38015;50.924;11.598;2023-04-05T00:21:22;100263.10;;;22.56;22.16
51999;BME280;38015;50.924;11.598;2023-04-05T00:23:53;100262.44;;;22.41;22.35
51999;BME280;38015;50.924;11.598;2023-04-05T00:26:23;100259.49;;;22.49;22.25
51999;BME280;38015;50.924;11.598;2023-04-05T00:28:53;100260.03;;;22.36;22.43
51999;BME280;38015;50.924;11.598;2023-04-05T00:31:23;100257.81;;;22.61;22.07
51999;BME280;38015;50.924;11.598;2023-04-05T00:33:54;100258.02;;;22.62;22.05
51999;BME280;38015;50.924;11.598;2023-04-05T00:36:24;100259.63;;;22.53;22.20
51999;BME280;38015;50.924;11.598;2023-04-05T00:38:56;100254.73;;;22.49;22.20
51999;BME280;38015;50.924;11.598;2023-04-05T00:41:25;100254.99;;;22.53;22.16
51999;BME280;38015;50.924;11.598;2023-04-05T00:43:55;100252.90;;;22.53;22.16
51999;BME280;38015;50.924;11.598;2023-04-05T00:46:26;100250.69;;;22.39;22.36
51999;BME280;38015;50.924;11.598;2023-04-05T00:48:56;100254.05;;;22.52;22.16
51999;BME280;38015;50.924;11.598;2023-04-05T00:51:28;100253.18;;;22.56;22.11
51999;BME280;38015;50.924;11.598;2023-04-05T00:54:00;100252.70;;;22.54;22.13
51999;BME280;38015;50.924;11.598;2023-04-05T00:56:28;100247.95;;;22.58;22.09
51999;BME280;38015;50.924;11.598;2023-04-05T00:58:58;100244.70;;;22.47;22.25
51999;BME280;38015;50.924;11.598;2023-04-05T01:01:30;100242.00;;;22.55;22.14
51999;BME280;38015;50.924;11.598;2023-04-05T01:04:00;100241.61;;;22.57;22.10
51999;BME280;38015;50.924;11.598;2023-04-05T01:06:43;100241.58;;;22.56;22.08
51999;BME280;38015;50.924;11.598;2023-04-05T01:09:07;100241.05;;;22.65;21.95
51999;BME280;38015;50.924;11.598;2023-04-05T01:11:32;100239.44;;;22.55;22.08
51999;BME280;38015;50.924;11.598;2023-04-05T01:14:01;100239.07;;;22.54;22.11
51999;BME280;38015;50.924;11.598;2023-04-05T01:16:32;100238.08;;;22.52;22.12
51999;BME280;38015;50.924;11.598;2023-04-05T01:19:02;100237.82;;;22.54;22.11
51999;BME280;38015;50.924;11.598;2023-04-05T01:24:13;100233.11;;;22.56;22.08
51999;BME280;38015;50.924;11.598;2023-04-05T01:31:41;100236.35;;;22.60;22.00
51999;BME280;38015;50.924;11.598;2023-04-05T01:34:12;100234.83;;;22.57;22.03
51999;BME280;38015;50.924;11.598;2023-04-05T01:36:39;100227.84;;;22.48;22.13
51999;BME280;38015;50.924;11.598;2023-04-05T01:39:08;100225.69;;;22.43;22.21
51999;BME280;38015;50.924;11.598;2023-04-05T01:41:38;100224.46;;;22.59;22.01
51999;BME280;38015;50.924;11.598;2023-04-05T01:44:08;100223.75;;;22.57;22.01
51999;BME280;38015;50.924;11.598;2023-04-05T01:46:37;100224.05;;;22.60;21.95
51999;BME280;38015;50.924;11.598;2023-04-05T01:49:09;100222.85;;;22.56;22.01
51999;BME280;38015;50.924;11.598;2023-04-05T01:51:38;100220.31;;;22.63;21.89
51999;BME280;38015;50.924;11.598;2023-04-05T01:54:09;100218.67;;;22.62;21.91
51999;BME280;38015;50.924;11.598;2023-04-05T01:56:39;100216.29;;;22.57;21.97
51999;BME280;38015;50.924;11.598;2023-04-05T01:59:10;100217.06;;;22.60;21.94
51999;BME280;38015;50.924;11.598;2023-04-05T02:01:40;100215.89;;;22.62;21.90
51999;BME280;38015;50.924;11.598;2023-04-05T02:04:11;100215.20;;;22.60;21.92
51999;BME280;38015;50.924;11.598;2023-04-05T02:06:41;100217.16;;;22.56;21.98
51999;BME280;38015;50.924;11.598;2023-04-05T02:09:12;100213.85;;;22.50;22.08
51999;BME280;38015;50.924;11.598;2023-04-05T02:11:42;100215.88;;;22.64;21.84
51999;BME280;38015;50.924;11.598;2023-04-05T02:14:13;100217.61;;;22.70;21.76
51999;BME280;38015;50.924;11.598;2023-04-05T02:16:43;100218.90;;;22.52;22.03
51999;BME280;38015;50.924;11.598;2023-04-05T02:19:15;100217.20;;;22.53;22.02
51999;BME280;38015;50.924;11.598;2023-04-05T02:21:44;100217.31;;;22.54;22.01
51999;BME280;38015;50.924;11.598;2023-04-05T02:24:15;100215.04;;;22.53;21.98
51999;BME280;38015;50.924;11.598;2023-04-05T02:26:46;100214.68;;;22.53;22.04
51999;BME280;38015;50.924;11.598;2023-04-05T02:29:16;100216.68;;;22.59;21.89
51999;BME280;38015;50.924;11.598;2023-04-05T02:31:46;100214.71;;;22.48;22.06
51999;BME280;38015;50.924;11.598;2023-04-05T02:34:17;100215.18;;;22.58;21.93
51999;BME280;38015;50.924;11.598;2023-04-05T02:36:49;100212.58;;;22.56;21.97
51999;BME280;38015;50.924;11.598;2023-04-05T02:39:18;100208.88;;;22.42;22.16
51999;BME280;38015;50.924;11.598;2023-04-05T02:41:48;100206.39;;;22.52;22.02
51999;BME280;38015;50.924;11.598;2023-04-05T02:44:19;100205.29;;;22.56;21.95
51999;BME280;38015;50.924;11.598;2023-04-05T02:46:49;100206.30;;;22.44;22.13
51999;BME280;38015;50.924;11.598;2023-04-05T02:49:21;100206.37;;;22.55;21.96
51999;BME280;38015;50.924;11.598;2023-04-05T02:51:50;100203.50;;;22.60;21.88
51999;BME280;38015;50.924;11.598;2023-04-05T02:54:22;100201.29;;;22.61;21.82
51999;BME280;38015;50.924;11.598;2023-04-05T02:56:51;100200.91;;;22.52;21.96
51999;BME280;38015;50.924;11.598;2023-04-05T02:59:22;100203.53;;;22.43;22.11
51999;BME280;38015;50.924;11.598;2023-04-05T03:01:53;100202.87;;;22.45;22.09
51999;BME280;38015;50.924;11.598;2023-04-05T03:04:23;100199.81;;;22.52;21.95
51999;BME280;38015;50.924;11.598;2023-04-05T03:06:53;100196.41;;;22.46;22.00
51999;BME280;38015;50.924;11.598;2023-04-05T03:09:24;100195.21;;;22.37;22.20
51999;BME280;38015;50.924;11.598;2023-04-05T03:11:55;100198.22;;;22.57;21.87
51999;BME280;38015;50.924;11.598;2023-04-05T03:14:25;100202.48;;;22.54;21.93
51999;BME280;38015;50.924;11.598;2023-04-05T03:16:56;100202.31;;;22.45;22.04
51999;BME280;38015;50.924;11.598;2023-04-05T03:19:28;100202.78;;;22.57;21.86
51999;BME280;38015;50.924;11.598;2023-04-05T03:21:57;100202.11;;;22.61;21.77
51999;BME280;38015;50.924;11.598;2023-04-05T03:24:27;100201.04;;;22.61;21.81
51999;BME280;38015;50.924;11.598;2023-04-05T03:27:02;100200.44;;;22.72;21.64
51999;BME280;38015;50.924;11.598;2023-04-05T03:29:28;100198.28;;;22.63;21.77
51999;BME280;38015;50.924;11.598;2023-04-05T03:31:59;100197.68;;;22.59;21.82
51999;BME280;38015;50.924;11.598;2023-04-05T03:34:29;100201.16;;;22.62;21.75
51999;BME280;38015;50.924;11.598;2023-04-05T03:37:00;100202.96;;;22.45;21.98
51999;BME280;38015;50.924;11.598;2023-04-05T03:39:32;100204.57;;;22.46;21.98
51999;BME280;38015;50.924;11.598;2023-04-05T03:42:01;100202.55;;;22.57;21.81
51999;BME280;38015;50.924;11.598;2023-04-05T03:44:31;100203.00;;;22.57;21.85
51999;BME280;38015;50.924;11.598;2023-04-05T03:47:02;100203.86;;;22.53;21.90
51999;BME280;38015;50.924;11.598;2023-04-05T03:49:34;100205.59;;;22.54;21.89
51999;BME280;38015;50.924;11.598;2023-04-05T03:52:04;100208.75;;;22.52;21.89
51999;BME280;38015;50.924;11.598;2023-04-05T03:54:33;100204.42;;;22.61;21.75
51999;BME280;38015;50.924;11.598;2023-04-05T03:57:04;100203.15;;;22.59;21.73
51999;BME280;38015;50.924;11.598;2023-04-05T03:59:34;100201.29;;;22.56;21.82
51999;BME280;38015;50.924;11.598;2023-04-05T04:02:05;100200.09;;;22.56;21.82
51999;BME280;38015;50.924;11.598;2023-04-05T04:04:36;100198.46;;;22.53;21.85
51999;BME280;38015;50.924;11.598;2023-04-05T04:07:06;100196.04;;;22.66;21.67
51999;BME280;38015;50.924;11.598;2023-04-05T04:09:36;100196.56;;;22.55;21.84
51999;BME280;38015;50.924;11.598;2023-04-05T04:12:07;100195.80;;;22.49;21.88
51999;BME280;38015;50.924;11.598;2023-04-05T04:14:38;100196.76;;;22.47;21.93
51999;BME280;38015;50.924;11.598;2023-04-05T04:17:08;100198.17;;;22.57;21.79
51999;BME280;38015;50.924;11.598;2023-04-05T04:19:40;100196.63;;;22.52;21.85
51999;BME280;38015;50.924;11.598;2023-04-05T04:22:09;100197.18;;;22.57;21.82
51999;BME280;38015;50.924;11.598;2023-04-05T04:24:39;100194.36;;;22.53;21.84
51999;BME280;38015;50.924;11.598;2023-04-05T04:27:10;100197.01;;;22.54;21.85
51999;BME280;38015;50.924;11.598;2023-04-05T04:29:40;100197.40;;;22.35;22.14
51999;BME280;38015;50.924;11.598;2023-04-05T04:32:11;100201.67;;;22.56;21.83
51999;BME280;38015;50.924;11.598;2023-04-05T04:34:41;100202.88;;;22.53;21.87
51999;BME280;38015;50.924;11.598;2023-04-05T04:37:13;100202.71;;;22.64;21.71
51999;BME280;38015;50.924;11.598;2023-04-05T04:39:43;100200.96;;;22.48;21.94
51999;BME280;38015;50.924;11.598;2023-04-05T04:42:13;100200.04;;;22.40;22.04
51999;BME280;38015;50.924;11.598;2023-04-05T04:44:43;100200.85;;;22.47;21.94
51999;BME280;38015;50.924;11.598;2023-04-05T04:47:14;100203.77;;;22.48;21.92
51999;BME280;38015;50.924;11.598;2023-04-05T04:49:44;100204.36;;;22.56;21.85
51999;BME280;38015;50.924;11.598;2023-04-05T04:52:15;100202.51;;;22.59;21.78
51999;BME280;38015;50.924;11.598;2023-04-05T04:54:45;100201.87;;;22.62;21.74
51999;BME280;38015;50.924;11.598;2023-04-05T04:57:16;100205.69;;;22.53;21.84
51999;BME280;38015;50.924;11.598;2023-04-05T04:59:46;100202.18;;;22.52;21.88
51999;BME280;38015;50.924;11.598;2023-04-05T05:02:17;100202.98;;;22.62;21.70
51999;BME280;38015;50.924;11.598;2023-04-05T05:04:47;100201.95;;;22.43;21.99
51999;BME280;38015;50.924;11.598;2023-04-05T05:07:18;100203.10;;;22.48;21.88
51999;BME280;38015;50.924;11.598;2023-04-05T05:09:48;100200.97;;;22.40;22.02
51999;BME280;38015;50.924;11.598;2023-04-05T05:12:20;100201.26;;;22.27;22.17
51999;BME280;38015;50.924;11.598;2023-04-05T05:14:49;100200.47;;;22.33;22.14
51999;BME280;38015;50.924;11.598;2023-04-05T05:17:20;100201.00;;;22.06;22.54
51999;BME280;38015;50.924;11.598;2023-04-05T05:19:50;100199.12;;;22.08;22.55
51999;BME280;38015;50.924;11.598;2023-04-05T05:22:22;100194.31;;;21.82;22.87
51999;BME280;38015;50.924;11.598;2023-04-05T05:24:51;100194.42;;;22.02;22.59
51999;BME280;38015;50.924;11.598;2023-04-05T05:27:22;100192.30;;;21.89;22.75
51999;BME280;38015;50.924;11.598;2023-04-05T05:29:52;100187.98;;;22.21;22.36
51999;BME280;38015;50.924;11.598;2023-04-05T05:32:23;100185.85;;;22.41;21.99
51999;BME280;38015;50.924;11.598;2023-04-05T05:34:53;100185.47;;;22.53;21.82
51999;BME280;38015;50.924;11.598;2023-04-05T05:37:29;100186.03;;;22.59;21.75
51999;BME280;38015;50.924;11.598;2023-04-05T05:39:54;100184.16;;;22.69;21.54
51999;BME280;38015;50.924;11.598;2023-04-05T05:42:24;100182.53;;;22.65;21.66
51999;BME280;38015;50.924;11.598;2023-04-05T05:44:55;100184.78;;;22.73;21.56
51999;BME280;38015;50.924;11.598;2023-04-05T05:47:25;100183.47;;;22.65;21.67
51999;BME280;38015;50.924;11.598;2023-04-05T05:49:56;100182.18;;;22.68;21.60
51999;BME280;38015;50.924;11.598;2023-04-05T05:52:27;100181.77;;;22.74;21.55
51999;BME280;38015;50.924;11.598;2023-04-05T05:54:57;100181.22;;;22.77;21.45
51999;BME280;38015;50.924;11.598;2023-04-05T05:57:28;100184.70;;;22.67;21.60
51999;BME280;38015;50.924;11.598;2023-04-05T05:59:58;100182.14;;;22.64;21.67
51999;BME280;38015;50.924;11.598;2023-04-05T06:02:28;100182.00;;;22.80;21.45
51999;BME280;38015;50.924;11.598;2023-04-05T06:04:59;100182.75;;;22.68;21.66
51999;BME280;38015;50.924;11.598;2023-04-05T06:07:29;100183.02;;;22.80;21.48
51999;BME280;38015;50.924;11.598;2023-04-05T06:10:00;100184.54;;;22.62;21.78
51999;BME280;38015;50.924;11.598;2023-04-05T06:12:30;100182.80;;;22.80;21.49
51999;BME280;38015;50.924;11.598;2023-04-05T06:15:01;100183.76;;;22.44;21.98
51999;BME280;38015;50.924;11.598;2023-04-05T06:17:31;100186.19;;;22.64;21.70
51999;BME280;38015;50.924;11.598;2023-04-05T06:20:02;100188.15;;;22.60;21.78
51999;BME280;38015;50.924;11.598;2023-04-05T06:22:32;100193.40;;;22.88;21.31
51999;BME280;38015;50.924;11.598;2023-04-05T06:25:03;100191.70;;;22.85;21.38
51999;BME280;38015;50.924;11.598;2023-04-05T06:27:33;100193.53;;;22.63;21.67
51999;BME280;38015;50.924;11.598;2023-04-05T06:30:04;100191.72;;;22.74;21.53
51999;BME280;38015;50.924;11.598;2023-04-05T06:32:34;100191.75;;;22.85;21.34
51999;BME280;38015;50.924;11.598;2023-04-05T06:35:06;100191.47;;;22.68;21.59
51999;BME280;38015;50.924;11.598;2023-04-05T06:37:35;100190.18;;;23.02;21.13
51999;BME280;38015;50.924;11.598;2023-04-05T06:40:07;100188.65;;;23.11;21.03
51999;BME280;38015;50.924;11.598;2023-04-05T06:42:36;100191.15;;;23.15;20.97
51999;BME280;38015;50.924;11.598;2023-04-05T06:45:07;100192.51;;;23.25;20.82
51999;BME280;38015;50.924;11.598;2023-04-05T06:47:38;100190.65;;;23.19;20.93
51999;BME280;38015;50.924;11.598;2023-04-05T06:50:08;100190.05;;;23.24;20.84
51999;BME280;38015;50.924;11.598;2023-04-05T06:52:38;100191.04;;;23.30;20.79
51999;BME280;38015;50.924;11.598;2023-04-05T06:55:08;100189.79;;;23.35;20.74
51999;BME280;38015;50.924;11.598;2023-04-05T06:57:39;100188.66;;;23.33;20.73
51999;BME280;38015;50.924;11.598;2023-04-05T07:00:10;100189.58;;;23.51;20.51
51999;BME280;38015;50.924;11.598;2023-04-05T07:02:39;100184.58;;;23.30;20.81
51999;BME280;38015;50.924;11.598;2023-04-05T07:05:10;100184.72;;;23.54;20.51
51999;BME280;38015;50.924;11.598;2023-04-05T07:07:41;100189.63;;;23.47;20.60
51999;BME280;38015;50.924;11.598;2023-04-05T07:10:11;100192.98;;;23.50;20.53
51999;BME280;38015;50.924;11.598;2023-04-05T07:12:41;100190.77;;;23.57;20.46
51999;BME280;38015;50.924;11.598;2023-04-05T07:15:12;100183.87;;;23.57;20.45
51999;BME280;38015;50.924;11.598;2023-04-05T07:17:42;100183.14;;;23.78;20.17
51999;BME280;38015;50.924;11.598;2023-04-05T07:20:14;100183.23;;;23.84;20.11
51999;BME280;38015;50.924;11.598;2023-04-05T07:22:43;100183.94;;;23.52;20.59
51999;BME280;38015;50.924;11.598;2023-04-05T07:25:14;100180.22;;;23.73;20.28
51999;BME280;38015;50.924;11.598;2023-04-05T07:27:44;100178.76;;;23.62;20.47
51999;BME280;38015;50.924;11.598;2023-04-05T07:30:15;100181.59;;;23.86;20.15
51999;BME280;38015;50.924;11.598;2023-04-05T07:32:45;100184.49;;;23.97;20.02
51999;BME280;38015;50.924;11.598;2023-04-05T07:35:16;100181.61;;;24.05;19.91
51999;BME280;38015;50.924;11.598;2023-04-05T07:37:46;100181.83;;;23.93;20.11
51999;BME280;38015;50.924;11.598;2023-04-05T07:40:18;100179.67;;;24.06;19.94
51999;BME280;38015;50.924;11.598;2023-04-05T07:42:49;100180.22;;;24.12;19.85
51999;BME280;38015;50.924;11.598;2023-04-05T07:45:18;100180.58;;;23.98;20.06
51999;BME280;38015;50.924;11.598;2023-04-05T07:47:48;100182.37;;;24.11;19.89
51999;BME280;38015;50.924;11.598;2023-04-05T07:50:18;100182.08;;;23.96;20.12
51999;BME280;38015;50.924;11.598;2023-04-05T07:52:50;100179.23;;;23.66;20.54
51999;BME280;38015;50.924;11.598;2023-04-05T07:55:19;100179.54;;;23.86;20.29
51999;BME280;38015;50.924;11.598;2023-04-05T07:57:50;100184.14;;;23.94;20.22
51999;BME280;38015;50.924;11.598;2023-04-05T08:00:21;100183.14;;;24.00;20.12
51999;BME280;38015;50.924;11.598;2023-04-05T08:02:51;100182.96;;;23.97;20.24
51999;BME280;38015;50.924;11.598;2023-04-05T08:05:21;100184.76;;;24.04;20.02
51999;BME280;38015;50.924;11.598;2023-04-05T08:07:52;100184.50;;;23.44;20.82
51999;BME280;38015;50.924;11.598;2023-04-05T08:10:22;100181.44;;;23.64;20.66
51999;BME280;38015;50.924;11.598;2023-04-05T08:12:53;100178.27;;;23.81;20.42
51999;BME280;38015;50.924;11.598;2023-04-05T08:15:23;100179.11;;;23.66;20.63
51999;BME280;38015;50.924;11.598;2023-04-05T08:17:54;100176.54;;;23.77;20.51
51999;BME280;38015;50.924;11.598;2023-04-05T08:20:25;100175.89;;;23.90;20.35
51999;BME280;38015;50.924;11.598;2023-04-05T08:22:54;100174.42;;;23.96;20.23
51999;BME280;38015;50.924;11.598;2023-04-05T08:25:25;100173.12;;;23.93;20.27
51999;BME280;38015;50.924;11.598;2023-04-05T08:27:55;100171.38;;;23.98;20.24
51999;BME280;38015;50.924;11.598;2023-04-05T08:30:28;100173.92;;;23.85;20.45
51999;BME280;38015;50.924;11.598;2023-04-05T08:32:56;100172.41;;;23.92;20.36
51999;BME280;38015;50.924;11.598;2023-04-05T08:35:27;100166.48;;;23.84;20.49
51999;BME280;38015;50.924;11.598;2023-04-05T08:37:57;100166.11;;;23.82;20.54
51999;BME280;38015;50.924;11.598;2023-04-05T08:40:35;100162.75;;;23.67;20.78
51999;BME280;38015;50.924;11.598;2023-04-05T08:43:06;100165.02;;;23.86;20.50
51999;BME280;38015;50.924;11.598;2023-04-05T08:45:30;100161.97;;;23.76;20.68
51999;BME280;38015;50.924;11.598;2023-04-05T08:47:59;100161.73;;;23.85;20.52
51999;BME280;38015;50.924;11.598;2023-04-05T08:50:30;100161.01;;;23.82;20.59
51999;BME280;38015;50.924;11.598;2023-04-05T08:53:00;100155.76;;;23.68;20.79
51999;BME280;38015;50.924;11.598;2023-04-05T08:55:31;100151.25;;;23.43;21.12
51999;BME280;38015;50.924;11.598;2023-04-05T08:58:05;100152.74;;;23.54;21.01
51999;BME280;38015;50.924;11.598;2023-04-05T09:00:32;100153.38;;;23.21;21.50
51999;BME280;38015;50.924;11.598;2023-04-05T09:03:03;100148.64;;;22.79;22.15
51999;BME280;38015;50.924;11.598;2023-04-05T09:05:33;100151.01;;;22.65;22.33
51999;BME280;38015;50.924;11.598;2023-04-05T09:08:04;100147.59;;;22.75;22.20
51999;BME280;38015;50.924;11.598;2023-04-05T09:10:33;100151.86;;;22.69;22.27
51999;BME280;38015;50.924;11.598;2023-04-05T09:13:04;100154.03;;;22.69;22.27
51999;BME280;38015;50.924;11.598;2023-04-05T09:15:35;100149.46;;;22.88;22.00
51999;BME280;38015;50.924;11.598;2023-04-05T09:18:05;100149.35;;;22.66;22.32
51999;BME280;38015;50.924;11.598;2023-04-05T09:20:37;100147.62;;;22.70;22.19
51999;BME280;38015;50.924;11.598;2023-04-05T09:23:06;100148.36;;;22.68;22.25
51999;BME280;38015;50.924;11.598;2023-04-05T09:25:37;100150.01;;;22.53;22.48
51999;BME280;38015;50.924;11.598;2023-04-05T09:28:09;100151.65;;;22.58;22.36
51999;BME280;38015;50.924;11.598;2023-04-05T09:30:37;100149.26;;;22.60;22.34
51999;BME280;38015;50.924;11.598;2023-04-05T09:33:18;100146.73;;;22.31;22.78
51999;BME280;38015;50.924;11.598;2023-04-05T09:35:38;100145.87;;;22.34;22.76
51999;BME280;38015;50.924;11.598;2023-04-05T09:38:09;100146.98;;;22.32;22.75
51999;BME280;38015;50.924;11.598;2023-04-05T09:40:40;100150.11;;;22.67;22.22
51999;BME280;38015;50.924;11.598;2023-04-05T09:43:11;100147.39;;;22.60;22.32
51999;BME280;38015;50.924;11.598;2023-04-05T09:45:41;100142.83;;;22.87;21.84
51999;BME280;38015;50.924;11.598;2023-04-05T09:48:11;100144.71;;;22.81;21.97
51999;BME280;38015;50.924;11.598;2023-04-05T09:50:41;100146.64;;;22.70;22.11
51999;BME280;38015;50.924;11.598;2023-04-05T09:53:13;100141.11;;;23.13;21.59
51999;BME280;38015;50.924;11.598;2023-04-05T09:55:43;100140.43;;;23.04;21.59
51999;BME280;38015;50.924;11.598;2023-04-05T09:58:18;100140.48;;;23.03;21.65
51999;BME280;38015;50.924;11.598;2023-04-05T10:00:48;100141.65;;;23.17;21.44
51999;BME280;38015;50.924;11.598;2023-04-05T10:03:13;100136.84;;;22.95;21.78
51999;BME280;38015;50.924;11.598;2023-04-05T10:05:44;100134.14;;;23.03;21.66
51999;BME280;38015;50.924;11.598;2023-04-05T10:08:14;100135.12;;;23.21;21.43
51999;BME280;38015;50.924;11.598;2023-04-05T10:10:46;100131.28;;;23.10;21.58
51999;BME280;38015;50.924;11.598;2023-04-05T10:13:15;100132.43;;;23.08;21.64
51999;BME280;38015;50.924;11.598;2023-04-05T10:15:48;100133.96;;;23.05;21.65
51999;BME280;38015;50.924;11.598;2023-04-05T10:18:20;100130.52;;;23.21;21.44
51999;BME280;38015;50.924;11.598;2023-04-05T10:20:49;100126.72;;;22.96;21.78
51999;BME280;38015;50.924;11.598;2023-04-05T10:23:23;100127.17;;;22.75;22.13
51999;BME280;38015;50.924;11.598;2023-04-05T10:25:56;100125.57;;;22.93;21.87
51999;BME280;38015;50.924;11.598;2023-04-05T10:28:25;100124.73;;;22.83;22.02
51999;BME280;38015;50.924;11.598;2023-04-05T10:30:52;100121.61;;;22.84;22.04
51999;BME280;38015;50.924;11.598;2023-04-05T10:33:25;100119.03;;;22.85;22.07
51999;BME280;38015;50.924;11.598;2023-04-05T10:35:59;100116.50;;;22.76;22.14
51999;BME280;38015;50.924;11.598;2023-04-05T10:38:26;100115.43;;;22.74;22.20
51999;BME280;38015;50.924;11.598;2023-04-05T10:40:53;100111.02;;;22.77;22.15
51999;BME280;38015;50.924;11.598;2023-04-05T10:43:24;100111.64;;;22.85;22.06
51999;BME280;38015;50.924;11.598;2023-04-05T10:45:52;100109.17;;;22.57;22.46
51999;BME280;38015;50.924;11.598;2023-04-05T10:48:33;100108.75;;;22.71;22.26
51999;BME280;38015;50.924;11.598;2023-04-05T10:50:53;100109.14;;;22.61;22.41
51999;BME280;38015;50.924;11.598;2023-04-05T10:53:25;100109.74;;;22.48;22.61
51999;BME280;38015;50.924;11.598;2023-04-05T10:55:54;100107.46;;;22.45;22.67
51999;BME280;38015;50.924;11.598;2023-04-05T10:58:24;100104.47;;;22.62;22.38
51999;BME280;38015;50.924;11.598;2023-04-05T11:00:54;100104.28;;;22.48;22.61
51999;BME280;38015;50.924;11.598;2023-04-05T11:08:25;100103.92;;;22.43;22.57
51999;BME280;38015;50.924;11.598;2023-04-05T11:10:56;100102.68;;;22.35;22.73
51999;BME280;38015;50.924;11.598;2023-04-05T11:18:27;100092.23;;;22.58;22.36
51999;BME280;38015;50.924;11.598;2023-04-05T11:23:28;100088.72;;;22.63;22.20
51999;BME280;38015;50.924;11.598;2023-04-05T11:26:05;100081.02;;;22.50;22.36
51999;BME280;38015;50.924;11.598;2023-04-05T11:28:36;100078.86;;;22.72;22.13
51999;BME280;38015;50.924;11.598;2023-04-05T11:33:37;100073.94;;;22.75;22.07
51999;BME280;38015;50.924;11.598;2023-04-05T11:36:01;100070.80;;;22.81;21.98
51999;BME280;38015;50.924;11.598;2023-04-05T11:38:33;100064.68;;;22.73;22.11
51999;BME280;38015;50.924;11.598;2023-04-05T11:41:05;100064.14;;;22.72;22.12
51999;BME280;38015;50.924;11.598;2023-04-05T11:43:32;100060.26;;;22.74;22.01
51999;BME280;38015;50.924;11.598;2023-04-05T11:46:03;100061.73;;;22.61;22.14
51999;BME280;38015;50.924;11.598;2023-04-05T11:48:33;100057.07;;;23.00;21.47
51999;BME280;38015;50.924;11.598;2023-04-05T11:51:08;100053.76;;;22.83;21.74
51999;BME280;38015;50.924;11.598;2023-04-05T11:53:35;100055.92;;;22.73;21.90
51999;BME280;38015;50.924;11.598;2023-04-05T11:56:08;100052.57;;;22.67;22.02
51999;BME280;38015;50.924;11.598;2023-04-05T11:58:35;100050.45;;;22.70;21.95
51999;BME280;38015;50.924;11.598;2023-04-05T12:01:08;100047.75;;;22.79;21.83
51999;BME280;38015;50.924;11.598;2023-04-05T12:03:36;100045.07;;;22.79;21.96
51999;BME280;38015;50.924;11.598;2023-04-05T12:06:06;100041.99;;;22.73;21.95
51999;BME280;38015;50.924;11.598;2023-04-05T12:08:38;100036.74;;;22.73;21.88
51999;BME280;38015;50.924;11.598;2023-04-05T12:11:09;100037.64;;;22.62;22.12
51999;BME280;38015;50.924;11.598;2023-04-05T12:13:38;100036.73;;;22.55;22.15
51999;BME280;38015;50.924;11.598;2023-04-05T12:16:10;100035.09;;;22.42;22.23
51999;BME280;38015;50.924;11.598;2023-04-05T12:18:39;100034.70;;;22.47;22.17
51999;BME280;38015;50.924;11.598;2023-04-05T12:21:10;100033.44;;;22.45;22.12
51999;BME280;38015;50.924;11.598;2023-04-05T12:23:40;100034.12;;;22.39;22.22
51999;BME280;38015;50.924;11.598;2023-04-05T12:26:10;100031.98;;;22.54;21.97
51999;BME280;38015;50.924;11.598;2023-04-05T12:28:49;100029.58;;;22.47;22.09
51999;BME280;38015;50.924;11.598;2023-04-05T12:31:11;100028.23;;;22.32;22.31
51999;BME280;38015;50.924;11.598;2023-04-05T12:33:42;100028.93;;;22.46;22.17
51999;BME280;38015;50.924;11.598;2023-04-05T12:36:13;100025.56;;;22.45;22.17
51999;BME280;38015;50.924;11.598;2023-04-05T12:38:43;100024.98;;;22.44;22.18
51999;BME280;38015;50.924;11.598;2023-04-05T12:41:13;100021.77;;;22.41;22.26
51999;BME280;38015;50.924;11.598;2023-04-05T12:43:43;100021.32;;;22.55;22.09
51999;BME280;38015;50.924;11.598;2023-04-05T12:46:17;100021.01;;;22.48;22.32
51999;BME280;38015;50.924;11.598;2023-04-05T12:48:50;100021.51;;;22.58;22.11
51999;BME280;38015;50.924;11.598;2023-04-05T12:51:16;100020.17;;;22.46;22.20
51999;BME280;38015;50.924;11.598;2023-04-05T12:53:46;100015.14;;;22.52;22.12
51999;BME280;38015;50.924;11.598;2023-04-05T12:56:16;100011.50;;;22.59;22.06
51999;BME280;38015;50.924;11.598;2023-04-05T12:58:48;100010.80;;;22.52;22.16
51999;BME280;38015;50.924;11.598;2023-04-05T13:01:17;100005.97;;;22.42;22.28
51999;BME280;38015;50.924;11.598;2023-04-05T13:03:47;100002.10;;;22.66;21.99
51999;BME280;38015;50.924;11.598;2023-04-05T13:06:18;99997.72;;;22.59;22.11
51999;BME280;38015;50.924;11.598;2023-04-05T13:08:48;99994.35;;;22.67;22.02
51999;BME280;38015;50.924;11.598;2023-04-05T13:11:19;99989.21;;;22.63;22.06
51999;BME280;38015;50.924;11.598;2023-04-05T13:13:49;99988.83;;;22.83;21.78
51999;BME280;38015;50.924;11.598;2023-04-05T13:16:20;99983.17;;;22.71;21.96
51999;BME280;38015;50.924;11.598;2023-04-05T13:18:50;99979.68;;;22.73;21.98